createdAt,value
2024-04-12T00:01:21.299Z,98367.41
2024-04-12T00:03:54.024Z,98369.81
2024-04-12T00:06:21.916Z,98370.59
2024-04-12T00:08:50.714Z,98371.61
2024-04-12T00:11:20.845Z,98370.70
2024-04-12T00:13:53.575Z,98369.61
2024-04-12T00:16:27.534Z,98368.28
2024-04-12T00:19:08.420Z,98370.21
2024-04-12T00:21:39.412Z,98370.18
2024-04-12T00:24:13.640Z,98372.07
2024-04-12T00:26:44.514Z,98368.85
2024-04-12T00:29:34.937Z,98369.71
2024-04-12T00:32:05.113Z,98369.92
2024-04-12T00:34:40.648Z,98366.80
2024-04-12T00:37:14.206Z,98363.22
2024-04-12T00:39:42.582Z,98361.08
2024-04-12T00:42:14.544Z,98360.46
2024-04-12T00:44:43.493Z,98362.66
2024-04-12T00:47:21.061Z,98365.91
2024-04-12T00:49:50.693Z,98362.71
2024-04-12T00:52:24.092Z,98369.93
2024-04-12T00:55:04.390Z,98369.36
2024-04-12T00:57:39.536Z,98368.25
2024-04-12T01:00:12.913Z,98370.50
2024-04-12T01:02:44.069Z,98373.84
2024-04-12T01:05:19.238Z,98371.16
2024-04-12T01:07:52.417Z,98371.84
2024-04-12T01:10:31.787Z,98369.91
2024-04-12T01:13:03.613Z,98363.48
2024-04-12T01:15:36.999Z,98364.19
2024-04-12T01:18:12.707Z,98366.35
2024-04-12T01:20:44.631Z,98366.76
2024-04-12T01:23:16.799Z,98365.39
2024-04-12T01:25:46.479Z,98363.86
2024-04-12T01:28:17.162Z,98364.05
2024-04-12T01:30:47.352Z,98362.55
2024-04-12T01:33:16.271Z,98359.67
2024-04-12T01:35:45.889Z,98359.45
2024-04-12T01:38:21.054Z,98360.10
2024-04-12T01:41:00.351Z,98363.48
2024-04-12T01:43:32.362Z,98363.70
2024-04-12T01:46:00.287Z,98360.37
2024-04-12T01:48:30.271Z,98362.38
2024-04-12T01:50:58.622Z,98360.92
2024-04-12T01:53:28.226Z,98364.57
2024-04-12T01:55:56.272Z,98363.98
2024-04-12T01:58:24.150Z,98362.97
2024-04-12T02:00:52.963Z,98360.27
2024-04-12T02:03:22.652Z,98359.04
2024-04-12T02:05:50.967Z,98356.14
2024-04-12T02:08:20.029Z,98358.04
2024-04-12T02:10:49.558Z,98360.63
2024-04-12T02:13:19.043Z,98360.41
2024-04-12T02:15:49.901Z,98362.09
2024-04-12T02:18:21.271Z,98361.88
2024-04-12T02:20:52.623Z,98361.00
2024-04-12T02:23:20.843Z,98360.86
2024-04-12T02:25:50.197Z,98358.41
2024-04-12T02:28:19.084Z,98359.66
2024-04-12T02:30:55.938Z,98361.22
2024-04-12T02:33:28.423Z,98361.13
2024-04-12T02:36:17.972Z,98363.20
2024-04-12T02:38:51.804Z,98365.44
2024-04-12T02:41:21.194Z,98363.41
2024-04-12T02:43:52.946Z,98363.33
2024-04-12T02:46:22.240Z,98362.11
2024-04-12T02:48:50.759Z,98363.81
2024-04-12T02:51:20.018Z,98365.42
2024-04-12T02:53:49.950Z,98370.71
2024-04-12T02:56:29.864Z,98370.66
2024-04-12T02:58:58.796Z,98369.32
2024-04-12T03:01:27.259Z,98368.67
2024-04-12T03:03:57.595Z,98364.60
2024-04-12T03:06:27.886Z,98361.23
2024-04-12T03:09:01.562Z,98359.49
2024-04-12T03:11:38.421Z,98358.39
2024-04-12T03:14:10.486Z,98362.09
2024-04-12T03:16:43.677Z,98365.45
2024-04-12T03:19:14.763Z,98365.42
2024-04-12T03:21:42.712Z,98367.77
2024-04-12T03:24:10.916Z,98368.77
2024-04-12T03:26:39.629Z,98371.25
2024-04-12T03:29:07.678Z,98375.54
2024-04-12T03:31:42.396Z,98377.72
2024-04-12T03:34:10.390Z,98381.42
2024-04-12T03:36:39.997Z,98379.55
2024-04-12T03:39:23.847Z,98378.66
2024-04-12T03:42:05.406Z,98378.85
2024-04-12T03:44:35.420Z,98378.27
2024-04-12T03:47:12.925Z,98379.46
2024-04-12T03:49:43.863Z,98382.98
2024-04-12T03:52:14.880Z,98392.16
2024-04-12T03:54:46.699Z,98392.23
2024-04-12T03:57:15.970Z,98393.08
2024-04-12T03:59:45.088Z,98394.99
2024-04-12T04:02:15.194Z,98404.91
2024-04-12T04:04:47.727Z,98406.92
2024-04-12T04:07:18.712Z,98409.79
2024-04-12T04:09:48.118Z,98414.34
2024-04-12T04:12:17.118Z,98419.69
2024-04-12T04:14:49.438Z,98420.31
2024-04-12T04:17:19.342Z,98422.70
2024-04-12T04:19:53.082Z,98424.83
2024-04-12T04:22:40.614Z,98424.20
2024-04-12T04:25:10.486Z,98420.80
2024-04-12T04:27:39.723Z,98417.98
2024-04-12T04:30:08.524Z,98415.24
2024-04-12T04:32:36.975Z,98414.88
2024-04-12T04:35:10.691Z,98416.16
2024-04-12T04:37:39.949Z,98415.64
2024-04-12T04:40:21.363Z,98417.11
2024-04-12T04:42:51.307Z,98418.70
2024-04-12T04:45:20.703Z,98420.82
2024-04-12T04:47:50.104Z,98420.21
2024-04-12T04:50:20.305Z,98413.77
2024-04-12T04:52:52.494Z,98414.17
2024-04-12T04:55:20.874Z,98413.17
2024-04-12T04:57:56.016Z,98420.71
2024-04-12T05:00:25.120Z,98425.17
2024-04-12T05:02:55.517Z,98429.96
2024-04-12T05:05:27.006Z,98427.77
2024-04-12T05:07:56.816Z,98426.51
2024-04-12T05:10:25.907Z,98425.19
2024-04-12T05:12:55.309Z,98427.19
2024-04-12T05:15:53.026Z,98430.92
2024-04-12T05:18:21.148Z,98437.16
2024-04-12T05:20:49.949Z,98441.36
2024-04-12T05:23:19.289Z,98440.03
2024-04-12T05:25:48.074Z,98437.64
2024-04-12T05:28:16.300Z,98436.17
2024-04-12T05:30:47.986Z,98438.10
2024-04-12T05:33:20.718Z,98437.36
2024-04-12T05:35:49.150Z,98441.20
2024-04-12T05:38:22.266Z,98440.92
2024-04-12T05:40:54.541Z,98440.07
2024-04-12T05:43:23.730Z,98443.42
2024-04-12T05:45:52.713Z,98439.42
2024-04-12T05:48:22.715Z,98436.70
2024-04-12T05:50:55.000Z,98433.96
2024-04-12T05:53:32.731Z,98433.05
2024-04-12T05:56:21.210Z,98439.13
2024-04-12T05:58:52.572Z,98438.70
2024-04-12T06:01:21.104Z,98440.14
2024-04-12T06:03:55.883Z,98438.90
2024-04-12T06:06:26.145Z,98437.64
2024-04-12T06:08:55.641Z,98435.45
2024-04-12T06:11:26.125Z,98433.03
2024-04-12T06:13:55.781Z,98431.52
2024-04-12T06:16:24.597Z,98427.02
2024-04-12T06:18:52.927Z,98425.02
2024-04-12T06:21:20.858Z,98429.77
2024-04-12T06:23:55.909Z,98431.29
2024-04-12T06:26:23.891Z,98432.56
2024-04-12T06:28:58.606Z,98431.04
2024-04-12T06:31:35.241Z,98429.41
2024-04-12T06:34:05.793Z,98424.48
2024-04-12T06:36:35.553Z,98427.14
2024-04-12T06:39:06.019Z,98423.85
2024-04-12T06:41:34.403Z,98429.97
2024-04-12T06:44:04.140Z,98426.49
2024-04-12T06:46:33.729Z,98421.02
2024-04-12T06:49:08.695Z,98421.85
2024-04-12T06:51:45.161Z,98425.23
2024-04-12T06:54:13.105Z,98426.98
2024-04-12T06:56:41.820Z,98428.74
2024-04-12T06:59:09.878Z,98426.13
2024-04-12T07:01:37.707Z,98426.08
2024-04-12T07:04:06.859Z,98422.55
2024-04-12T07:06:34.992Z,98419.25
2024-04-12T07:09:09.783Z,98418.05
2024-04-12T07:11:41.054Z,98423.52
2024-04-12T07:14:08.856Z,98427.69
2024-04-12T07:16:37.045Z,98422.05
2024-04-12T07:19:09.904Z,98419.49
2024-04-12T07:21:37.662Z,98420.77
2024-04-12T07:24:06.984Z,98412.96
2024-04-12T07:26:37.535Z,98416.20
2024-04-12T07:29:07.563Z,98416.67
2024-04-12T07:31:37.433Z,98420.10
2024-04-12T07:34:09.232Z,98414.66
2024-04-12T07:36:38.460Z,98416.32
2024-04-12T07:39:10.777Z,98417.17
2024-04-12T07:41:45.119Z,98414.00
2024-04-12T07:44:14.295Z,98412.13
2024-04-12T07:46:53.651Z,98412.42
2024-04-12T07:49:21.997Z,98403.20
2024-04-12T07:51:50.604Z,98401.98
2024-04-12T07:54:18.486Z,98400.70
2024-04-12T07:57:08.596Z,98395.27
2024-04-12T07:59:38.876Z,98396.86
2024-04-12T08:02:10.116Z,98396.72
2024-04-12T08:04:39.663Z,98395.11
2024-04-12T08:07:07.900Z,98397.08
2024-04-12T08:09:36.626Z,98398.70
2024-04-12T08:12:34.995Z,98394.27
2024-04-12T08:15:15.896Z,98393.83
2024-04-12T08:17:50.345Z,98391.77
2024-04-12T08:20:26.369Z,98386.66
2024-04-12T08:22:54.208Z,98386.98
2024-04-12T08:25:28.050Z,98382.52
2024-04-12T08:27:56.125Z,98381.52
2024-04-12T08:30:24.045Z,98377.77
2024-04-12T08:32:52.909Z,98372.05
2024-04-12T08:35:21.953Z,98374.17
2024-04-12T08:37:54.872Z,98373.65
2024-04-12T08:40:26.207Z,98369.59
2024-04-12T08:43:10.060Z,98370.18
2024-04-12T08:45:44.233Z,98366.45
2024-04-12T08:48:13.622Z,98363.81
2024-04-12T08:50:41.942Z,98357.34
2024-04-12T08:53:18.661Z,98357.88
2024-04-12T08:55:47.100Z,98360.67
2024-04-12T08:58:22.398Z,98361.08
2024-04-12T09:00:55.367Z,98360.08
2024-04-12T09:03:27.876Z,98354.02
2024-04-12T09:05:57.730Z,98345.48
2024-04-12T09:08:32.083Z,98345.20
2024-04-12T09:11:05.083Z,98345.85
2024-04-12T09:13:36.054Z,98346.85
2024-04-12T09:16:08.061Z,98341.17
2024-04-12T09:18:54.754Z,98338.96
2024-04-12T09:21:37.145Z,98339.67
2024-04-12T09:24:11.241Z,98338.27
2024-04-12T09:26:56.319Z,98337.66
2024-04-12T09:29:28.508Z,98336.53
2024-04-12T09:32:16.733Z,98334.36
2024-04-12T09:34:57.076Z,98335.48
2024-04-12T09:37:30.106Z,98334.61
2024-04-12T09:40:02.072Z,98333.66
2024-04-12T09:42:46.948Z,98330.84
2024-04-12T09:45:23.520Z,98330.20
2024-04-12T09:48:13.108Z,98329.52
2024-04-12T09:51:00.306Z,98327.55
2024-04-12T09:53:47.031Z,98331.19
2024-04-12T09:56:35.426Z,98329.21
2024-04-12T09:59:33.579Z,98330.64
2024-04-12T10:02:23.080Z,98329.90
2024-04-12T10:05:10.934Z,98330.03
2024-04-12T10:07:58.412Z,98324.17
2024-04-12T10:10:47.433Z,98322.06
2024-04-12T10:13:34.773Z,98315.40
2024-04-12T10:16:22.177Z,98310.80
2024-04-12T10:19:18.194Z,98310.61
2024-04-12T10:22:05.091Z,98304.75
2024-04-12T10:24:52.113Z,98302.22
2024-04-12T10:27:39.052Z,98299.91
2024-04-12T10:30:28.872Z,98292.57
2024-04-12T10:33:21.616Z,98288.63
2024-04-12T10:36:08.900Z,98286.35
2024-04-12T10:38:45.315Z,98281.16
2024-04-12T10:41:16.377Z,98284.88
2024-04-12T10:43:44.423Z,98282.36
2024-04-12T10:46:12.802Z,98278.65
2024-04-12T10:48:44.638Z,98274.52
2024-04-12T10:51:17.883Z,98269.70
2024-04-12T10:53:50.473Z,98275.27
2024-04-12T10:56:21.569Z,98272.48
2024-04-12T10:58:57.611Z,98272.00
2024-04-12T11:01:27.683Z,98273.86
2024-04-12T11:03:59.838Z,98272.59
2024-04-12T11:06:33.067Z,98263.40
2024-04-12T11:09:06.073Z,98262.08
2024-04-12T11:11:40.232Z,98263.83
2024-04-12T11:14:18.595Z,98261.65
2024-04-12T11:17:06.114Z,98256.20
2024-04-12T11:19:56.451Z,98252.01
2024-04-12T11:22:44.482Z,98253.13
2024-04-12T11:25:34.184Z,98250.69
2024-04-12T11:28:24.656Z,98251.68
2024-04-12T11:31:15.968Z,98251.98
2024-04-12T11:33:48.602Z,98246.42
2024-04-12T11:36:23.323Z,98241.14
2024-04-12T11:38:54.907Z,98236.92
2024-04-12T11:41:25.942Z,98237.46
2024-04-12T11:43:55.956Z,98230.56
2024-04-12T11:46:24.974Z,98225.88
2024-04-12T11:48:57.641Z,98227.95
2024-04-12T11:51:38.524Z,98226.80
2024-04-12T11:54:06.931Z,98228.30
2024-04-12T11:56:35.208Z,98231.35
2024-04-12T11:59:03.406Z,98224.05
2024-04-12T12:01:31.317Z,98227.54
2024-04-12T12:03:59.724Z,98224.66
2024-04-12T12:06:27.664Z,98227.33
2024-04-12T12:08:58.660Z,98222.11
2024-04-12T12:11:29.148Z,98222.71
2024-04-12T12:13:57.098Z,98220.77
2024-04-12T12:16:26.922Z,98216.46
2024-04-12T12:18:55.019Z,98211.96
2024-04-12T12:21:24.201Z,98209.23
2024-04-12T12:23:52.245Z,98207.89
2024-04-12T12:26:22.520Z,98199.66
2024-04-12T12:28:51.484Z,98197.80
2024-04-12T12:31:19.635Z,98193.41
2024-04-12T12:33:48.897Z,98188.15
2024-04-12T12:36:18.318Z,98186.13
2024-04-12T12:38:46.339Z,98184.07
2024-04-12T12:41:15.635Z,98183.80
2024-04-12T12:43:48.490Z,98180.46
2024-04-12T12:46:16.825Z,98180.48
2024-04-12T12:48:44.839Z,98180.59
2024-04-12T12:51:13.787Z,98176.86
2024-04-12T12:53:42.465Z,98174.70
2024-04-12T12:56:10.605Z,98174.48
2024-04-12T12:58:41.778Z,98169.98
2024-04-12T13:01:13.957Z,98167.38
2024-04-12T13:03:45.082Z,98165.31
2024-04-12T13:06:22.257Z,98166.88
2024-04-12T13:08:50.344Z,98165.38
2024-04-12T13:11:26.126Z,98162.34
2024-04-12T13:13:54.579Z,98165.21
2024-04-12T13:16:25.611Z,98161.02
2024-04-12T13:18:54.624Z,98160.33
2024-04-12T13:21:24.986Z,98159.40
2024-04-12T13:23:55.008Z,98159.45
2024-04-12T13:26:27.926Z,98154.52
2024-04-12T13:28:55.808Z,98147.25
2024-04-12T13:31:25.071Z,98144.19
2024-04-12T13:33:57.285Z,98145.11
2024-04-12T13:36:25.736Z,98143.01
2024-04-12T13:38:54.836Z,98140.95
2024-04-12T13:41:22.781Z,98139.55
2024-04-12T13:43:51.817Z,98137.31
2024-04-12T13:46:41.896Z,98133.58
2024-04-12T13:49:30.835Z,98136.73
2024-04-12T13:52:01.317Z,98136.06
2024-04-12T13:54:29.332Z,98129.67
2024-04-12T13:56:57.404Z,98128.48
2024-04-12T13:59:25.802Z,98128.16
2024-04-12T14:01:54.062Z,98125.39
2024-04-12T14:04:28.216Z,98123.15
2024-04-12T14:06:56.354Z,98119.36
2024-04-12T14:09:25.108Z,98120.06
2024-04-12T14:11:53.375Z,98117.56
2024-04-12T14:14:21.654Z,98119.15
2024-04-12T14:16:52.357Z,98115.45
2024-04-12T14:19:21.722Z,98112.80
2024-04-12T14:21:54.143Z,98118.33
2024-04-12T14:24:41.798Z,98114.98
2024-04-12T14:27:10.184Z,98112.58
2024-04-12T14:29:38.298Z,98111.96
2024-04-12T14:32:07.453Z,98113.11
2024-04-12T14:34:37.008Z,98113.21
2024-04-12T14:37:06.073Z,98108.32
2024-04-12T14:39:34.619Z,98108.26
2024-04-12T14:42:03.911Z,98111.83
2024-04-12T14:44:40.166Z,98109.59
2024-04-12T14:47:09.326Z,98105.19
2024-04-12T14:49:37.564Z,98108.86
2024-04-12T14:52:12.370Z,98108.14
2024-04-12T14:54:40.921Z,98105.73
2024-04-12T14:57:08.967Z,98102.05
2024-04-12T14:59:38.333Z,98101.77
2024-04-12T15:02:07.128Z,98099.53
2024-04-12T15:04:53.834Z,98105.00
2024-04-12T15:07:40.201Z,98102.40
2024-04-12T15:10:26.946Z,98102.18
2024-04-12T15:13:13.663Z,98096.31
2024-04-12T15:15:59.980Z,98094.58
2024-04-12T15:18:46.413Z,98092.66
2024-04-12T15:21:32.947Z,98093.06
2024-04-12T15:24:19.624Z,98092.08
2024-04-12T15:27:06.140Z,98092.80
2024-04-12T15:29:52.573Z,98091.51
2024-04-12T15:32:39.195Z,98096.13
2024-04-12T15:35:26.294Z,98095.02
2024-04-12T15:38:12.784Z,98094.02
2024-04-12T15:40:59.283Z,98096.38
2024-04-12T15:43:45.536Z,98098.39
2024-04-12T15:46:31.947Z,98102.41
2024-04-12T15:49:00.785Z,98105.10
2024-04-12T15:51:29.733Z,98102.73
2024-04-12T15:54:00.502Z,98101.64
2024-04-12T15:56:29.202Z,98101.13
2024-04-12T15:59:15.686Z,98105.69
2024-04-12T16:02:02.028Z,98107.09
2024-04-12T16:04:49.279Z,98109.46
2024-04-12T16:07:35.751Z,98112.20
2024-04-12T16:10:22.584Z,98112.45
2024-04-12T16:12:50.567Z,98114.55
2024-04-12T16:15:18.848Z,98113.12
2024-04-12T16:17:47.085Z,98112.70
2024-04-12T16:20:15.233Z,98114.45
2024-04-12T16:22:43.125Z,98117.41
2024-04-12T16:25:11.316Z,98115.64
2024-04-12T16:27:40.131Z,98119.64
2024-04-12T16:30:07.966Z,98113.45
2024-04-12T16:32:36.062Z,98113.74
2024-04-12T16:35:04.161Z,98115.17
2024-04-12T16:37:32.149Z,98118.41
2024-04-12T16:40:00.701Z,98123.02
2024-04-12T16:42:28.652Z,98123.09
2024-04-12T16:44:56.684Z,98119.66
2024-04-12T16:47:25.122Z,98120.02
2024-04-12T16:49:55.211Z,98117.56
2024-04-12T16:52:22.952Z,98119.97
2024-04-12T16:54:51.819Z,98121.81
2024-04-12T16:57:21.112Z,98125.56
2024-04-12T16:59:49.363Z,98125.55
2024-04-12T17:02:17.355Z,98131.89
2024-04-12T17:04:46.028Z,98133.86
2024-04-12T17:07:14.001Z,98135.33
2024-04-12T17:09:42.599Z,98136.75
2024-04-12T17:12:10.677Z,98138.67
2024-04-12T17:14:38.685Z,98143.72
2024-04-12T17:17:06.903Z,98145.52
2024-04-12T17:19:34.986Z,98146.45
2024-04-12T17:22:03.006Z,98148.18
2024-04-12T17:24:30.916Z,98148.94
2024-04-12T17:26:58.777Z,98144.90
2024-04-12T17:29:30.413Z,98144.11
2024-04-12T17:31:59.429Z,98143.61
2024-04-12T17:34:28.855Z,98149.91
2024-04-12T17:36:56.982Z,98148.17
2024-04-12T17:39:25.638Z,98149.48
2024-04-12T17:41:54.330Z,98151.34
2024-04-12T17:44:23.646Z,98154.82
2024-04-12T17:46:52.664Z,98151.30
2024-04-12T17:49:20.772Z,98150.79
2024-04-12T17:51:49.178Z,98148.86
2024-04-12T17:54:17.230Z,98147.66
2024-04-12T17:56:45.183Z,98147.45
2024-04-12T17:59:13.263Z,98151.29
2024-04-12T18:01:41.858Z,98156.03
2024-04-12T18:04:10.118Z,98156.73
2024-04-12T18:06:40.568Z,98159.96
2024-04-12T18:09:10.335Z,98162.59
2024-04-12T18:11:38.250Z,98167.50
2024-04-12T18:14:07.938Z,98171.55
2024-04-12T18:16:36.080Z,98171.11
2024-04-12T18:19:06.679Z,98167.80
2024-04-12T18:21:34.942Z,98171.08
2024-04-12T18:24:02.999Z,98174.07
2024-04-12T18:26:30.914Z,98176.30
2024-04-12T18:28:58.996Z,98179.16
2024-04-12T18:31:27.060Z,98181.35
2024-04-12T18:33:54.970Z,98182.81
2024-04-12T18:36:25.307Z,98183.91
2024-04-12T18:39:11.765Z,98179.09
2024-04-12T18:42:00.541Z,98183.63
2024-04-12T18:44:47.807Z,98185.27
2024-04-12T18:47:15.931Z,98186.19
2024-04-12T18:49:45.185Z,98184.70
2024-04-12T18:52:14.504Z,98181.77
2024-04-12T18:54:42.406Z,98183.77
2024-04-12T18:57:10.305Z,98183.88
2024-04-12T18:59:38.507Z,98185.60
2024-04-12T19:02:07.855Z,98181.02
2024-04-12T19:04:35.801Z,98182.11
2024-04-12T19:07:03.943Z,98180.71
2024-04-12T19:09:32.378Z,98182.65
2024-04-12T19:12:00.391Z,98183.64
2024-04-12T19:14:28.463Z,98183.10
2024-04-12T19:16:59.118Z,98185.52
2024-04-12T19:19:27.206Z,98187.42
2024-04-12T19:21:56.392Z,98187.30
2024-04-12T19:24:24.552Z,98188.83
2024-04-12T19:26:54.264Z,98189.15
2024-04-12T19:29:25.212Z,98189.79
2024-04-12T19:31:54.354Z,98190.94
2024-04-12T19:34:22.302Z,98190.08
2024-04-12T19:36:50.195Z,98191.42
2024-04-12T19:39:19.119Z,98188.46
2024-04-12T19:41:47.339Z,98185.59
2024-04-12T19:44:15.810Z,98188.77
2024-04-12T19:46:43.643Z,98187.69
2024-04-12T19:49:11.754Z,98185.61
2024-04-12T19:51:40.053Z,98183.05
2024-04-12T19:54:08.260Z,98184.17
2024-04-12T19:56:36.072Z,98182.64
2024-04-12T19:59:04.025Z,98184.88
2024-04-12T20:01:32.315Z,98186.54
2024-04-12T20:04:00.350Z,98185.26
2024-04-12T20:06:28.816Z,98192.64
2024-04-12T20:08:56.828Z,98189.63
2024-04-12T20:11:27.141Z,98189.73
2024-04-12T20:13:55.066Z,98194.30
2024-04-12T20:16:23.232Z,98194.93
2024-04-12T20:18:51.346Z,98192.68
2024-04-12T20:21:19.995Z,98194.84
2024-04-12T20:23:49.932Z,98193.04
2024-04-12T20:26:19.077Z,98193.14
2024-04-12T20:28:49.641Z,98192.28
2024-04-12T20:31:21.933Z,98194.71
2024-04-12T20:34:03.730Z,98199.45
2024-04-12T20:36:41.931Z,98200.91
2024-04-12T20:39:23.111Z,98197.20
2024-04-12T20:41:55.554Z,98199.20
2024-04-12T20:44:26.724Z,98200.19
2024-04-12T20:46:55.811Z,98200.45
2024-04-12T20:49:23.866Z,98201.39
2024-04-12T20:51:55.157Z,98199.02
2024-04-12T20:54:23.359Z,98197.86
2024-04-12T20:56:51.304Z,98195.29
2024-04-12T20:59:20.629Z,98194.20
2024-04-12T21:01:52.171Z,98194.71
2024-04-12T21:04:21.395Z,98192.20
2024-04-12T21:06:54.713Z,98191.59
2024-04-12T21:09:22.941Z,98191.52
2024-04-12T21:11:52.595Z,98191.16
2024-04-12T21:14:20.922Z,98189.64
2024-04-12T21:16:48.961Z,98189.93
2024-04-12T21:19:17.994Z,98187.96
2024-04-12T21:21:45.844Z,98189.73
2024-04-12T21:24:16.651Z,98190.48
2024-04-12T21:26:44.782Z,98189.02
2024-04-12T21:29:12.627Z,98186.45
2024-04-12T21:31:41.210Z,98186.54
2024-04-12T21:34:12.915Z,98187.83
2024-04-12T21:36:41.703Z,98195.48
2024-04-12T21:39:09.759Z,98196.88
2024-04-12T21:41:37.679Z,98197.80
2024-04-12T21:44:07.382Z,98197.96
2024-04-12T21:46:35.367Z,98199.88
2024-04-12T21:49:03.176Z,98201.23
2024-04-12T21:51:32.420Z,98199.30
2024-04-12T21:54:01.353Z,98199.38
2024-04-12T21:56:29.473Z,98198.98
2024-04-12T21:58:59.671Z,98201.35
2024-04-12T22:01:27.943Z,98198.59
2024-04-12T22:03:55.815Z,98201.71
2024-04-12T22:06:23.757Z,98196.95
2024-04-12T22:08:55.375Z,98191.77
2024-04-12T22:11:24.713Z,98195.91
2024-04-12T22:13:52.875Z,98193.65
2024-04-12T22:16:20.812Z,98196.21
2024-04-12T22:18:48.656Z,98193.77
2024-04-12T22:21:17.789Z,98194.97
2024-04-12T22:23:49.166Z,98197.67
2024-04-12T22:26:23.007Z,98195.13
2024-04-12T22:28:51.521Z,98197.55
2024-04-12T22:31:22.381Z,98200.27
2024-04-12T22:33:54.622Z,98198.45
2024-04-12T22:36:23.558Z,98195.12
2024-04-12T22:38:52.327Z,98197.73
2024-04-12T22:41:20.580Z,98198.19
2024-04-12T22:43:48.635Z,98193.79
2024-04-12T22:46:16.758Z,98194.94
2024-04-12T22:48:46.116Z,98195.89
2024-04-12T22:51:24.920Z,98195.63
2024-04-12T22:53:53.148Z,98196.90
2024-04-12T22:56:25.360Z,98191.14
2024-04-12T22:58:58.216Z,98188.08
2024-04-12T23:01:29.500Z,98184.27
2024-04-12T23:03:58.253Z,98186.58
2024-04-12T23:06:27.212Z,98185.66
2024-04-12T23:08:55.348Z,98185.02
2024-04-12T23:11:23.390Z,98180.38
2024-04-12T23:13:51.475Z,98178.73
2024-04-12T23:16:19.939Z,98180.89
2024-04-12T23:18:50.581Z,98173.63
2024-04-12T23:21:18.494Z,98172.35
2024-04-12T23:23:49.004Z,98170.14
2024-04-12T23:26:16.742Z,98171.95
2024-04-12T23:28:44.821Z,98170.76
2024-04-12T23:31:12.889Z,98167.46
2024-04-12T23:33:40.937Z,98165.50
2024-04-12T23:36:08.888Z,98164.90
2024-04-12T23:38:37.035Z,98161.98
2024-04-12T23:41:05.012Z,98160.46
2024-04-12T23:43:32.844Z,98163.20
2024-04-12T23:46:00.715Z,98162.27
2024-04-12T23:48:28.686Z,98165.14
2024-04-12T23:50:56.766Z,98161.39
2024-04-12T23:53:24.578Z,98160.77
2024-04-12T23:55:52.452Z,98161.33
2024-04-12T23:58:20.191Z,98159.80
